Latest Weather Observations for Croker Island Airport

IDD60801

Issued at 8:31 pm CST Saturday 29 April 2017 (issued every 30 minutes, with the page automatically refreshed every 10 minutes)

About weather observations | Map of weather stations | Latest weather observations for NT | Other Formats
Station Details ID: 014308 Name: CROKER ISLAND AIRPORT Lat: -11.16 Lon: 132.48 Height: 9.2 m
Data from the previous 72 hours. | See also: Recent months at Croker Island Airport
Date/Time
CST
Temp
°C
App
Temp
°C
Dew
Point
°C
Rel
Hum
%
Delta-T
°C
Wind Press
QNH
hPa
Press
MSL
hPa
Rain since
9am
mm
Dir  Spd
km/h
Gust
km/h
Spd
kts
Gust
kts
29/08:30pm 24.5 28.9 23.5 94 0.7 SE 6 6 3 3 1013.1 1013.0 0.0
29/08:00pm 24.9 29.2 23.3 91 1.1 SE 6 7 3 4 1012.8 1012.7 0.0
29/07:30pm 25.6 29.7 23.3 87 1.6 ESE 7 11 4 6 1012.6 1012.5 0.0
29/07:00pm 26.0 30.0 23.1 84 2.0 E 7 11 4 6 1012.4 1012.3 0.0
29/06:30pm 26.5 29.3 23.0 81 2.4 E 13 17 7 9 1012.2 1012.1 0.0
29/06:00pm 27.3 30.2 23.1 78 2.9 ESE 13 19 7 10 1012.1 1012.0 0.0
29/05:30pm 27.7 29.7 22.9 75 3.3 ESE 17 28 9 15 1011.9 1011.8 0.0
29/05:00pm 28.3 30.3 23.0 73 3.6 E 17 26 9 14 1011.3 1011.2 0.0
29/04:30pm 28.5 30.1 23.2 73 3.6 E 20 32 11 17 1011.0 1010.9 0.0
29/04:00pm 28.5 29.7 23.2 73 3.6 E 22 32 12 17 1010.6 1010.5 0.0
29/03:30pm 28.6 29.6 22.8 71 4.0 E 22 32 12 17 1010.6 1010.5 0.0
29/03:00pm 28.3 28.9 22.1 69 4.2 E 22 35 12 19 1010.6 1010.5 0.0
29/02:30pm 28.7 29.1 22.4 68 4.3 E 24 37 13 20 1010.9 1010.8 0.0
29/02:00pm 29.1 29.7 22.8 69 4.3 E 24 37 13 20 1011.3 1011.2 0.0
29/01:30pm 28.8 28.4 22.3 68 4.4 E 28 41 15 22 1011.5 1011.4 0.0
29/01:00pm 29.1 29.6 22.6 68 4.4 E 24 39 13 21 1012.0 1011.9 0.0
29/12:30pm 29.4 30.3 22.6 67 4.6 E 22 41 12 22 1012.7 1012.6 0.0
29/12:00pm 29.0 29.3 21.5 64 5.0 ESE 22 35 12 19 1013.2 1013.1 0.0
29/11:30am 28.8 29.0 21.3 64 5.0 E 22 32 12 17 1013.9 1013.8 0.0
29/11:00am 28.5 28.0 20.8 63 5.1 E 24 37 13 20 1014.2 1014.1 0.0
29/10:30am 28.4 28.8 20.7 63 5.1 E 19 30 10 16 1014.4 1014.3 0.0
29/10:00am 28.1 28.2 19.9 61 5.4 ESE 19 28 10 15 1014.1 1014.0 0.0
29/09:30am 27.6 27.5 19.9 63 5.0 ESE 20 32 11 17 1013.8 1013.7 0.0
29/09:00am 27.0 26.4 18.8 60 5.3 ESE 20 35 11 19 1013.4 1013.3 0.0
29/08:30am 26.4 26.2 19.3 65 4.6 ESE 19 26 10 14 1012.9 1012.8 0.0
29/08:00am 25.7 25.4 19.1 67 4.2 ESE 19 30 10 16 1012.5 1012.4 0.0
29/07:30am 24.9 26.0 20.4 76 2.9 ESE 15 22 8 12 1012.3 1012.2 0.0
29/07:00am 24.7 25.8 21.2 81 2.3 ESE 17 32 9 17 1011.8 1011.7 0.0
29/06:30am 24.5 27.5 24.0 97 0.3 ESE 15 24 8 13 1011.8 1011.7 0.0
29/06:00am 24.8 27.2 24.3 97 0.3 ESE 19 32 10 17 1011.7 1011.6 0.0
29/05:30am 25.0 27.3 24.5 97 0.3 E 20 33 11 18 1011.3 1011.2 0.0
29/05:00am 24.9 28.7 24.7 99 0.1 ESE 13 24 7 13 1011.3 1011.2 0.0
29/04:30am 24.9 28.5 24.4 97 0.3 ESE 13 19 7 10 1011.2 1011.1 0.0
29/04:00am 24.9 29.0 24.6 98 0.2 ESE 11 20 6 11 1011.4 1011.3 0.0
29/03:30am 25.1 29.1 24.4 96 0.5 ESE 11 19 6 10 1011.3 1011.2 0.0
29/03:00am 25.5 28.8 24.5 94 0.7 ESE 15 24 8 13 1011.2 1011.1 0.0
29/02:30am 25.8 29.2 25.3 97 0.3 ESE 17 28 9 15 1011.3 1011.2 0.0
29/02:00am 25.7 30.1 25.7 100 0.0 ESE 13 20 7 11 1011.5 1011.4 0.0
29/01:30am 25.2 30.1 25.2 100 0.0 ESE 9 17 5 9 1011.7 1011.6 0.0
29/01:00am 25.0 30.3 25.0 100 0.0 SE 6 9 3 5 1012.1 1012.0 0.0
29/12:30am 25.3 30.8 25.3 100 0.0 SE 6 7 3 4 1012.4 1012.3 0.0
29/12:00am 25.6 31.3 25.6 100 0.0 ESE 6 7 3 4 1012.6 1012.5 0.0
 
Date/Time
CST
Temp
°C
App
Temp
°C
Dew
Point
°C
Rel
Hum
%
Delta-T
°C
Wind Press
QNH
hPa
Press
MSL
hPa
Rain since
9am
mm
Dir  Spd
km/h
Gust
km/h
Spd
kts
Gust
kts
28/11:30pm 25.5 31.5 25.5 100 0.0 ESE 4 6 2 3 1012.7 1012.6 0.0
28/11:00pm 25.8 31.6 25.8 100 0.0 E 6 7 3 4 1012.8 1012.7 0.0
28/10:30pm 25.9 31.6 25.9 100 0.0 E 7 7 4 4 1013.0 1012.9 0.0
28/10:00pm 25.7 31.5 25.7 100 0.0 ESE 6 7 3 4 1013.0 1012.9 0.0
28/09:30pm 25.9 31.8 25.9 100 0.0 ESE 6 6 3 3 1013.0 1012.9 0.0
28/09:00pm 26.1 31.9 25.8 98 0.2 ESE 6 9 3 5 1012.9 1012.8 0.0
28/08:30pm 26.4 31.8 25.5 95 0.6 E 7 11 4 6 1012.4 1012.3 0.0
28/08:00pm 26.7 31.6 25.3 92 1.0 E 9 15 5 8 1012.4 1012.3 0.0
28/07:30pm 26.9 30.9 25.1 90 1.3 E 13 17 7 9 1011.9 1011.8 0.0
28/07:00pm 27.0 30.5 24.8 88 1.5 E 15 22 8 12 1011.7 1011.6 0.0
28/06:30pm 27.2 30.7 24.8 87 1.7 E 15 20 8 11 1011.6 1011.5 0.0
28/06:00pm 27.6 30.3 24.8 85 2.0 E 19 26 10 14 1011.1 1011.0 0.0
28/05:30pm 27.9 30.7 24.9 84 2.1 E 19 30 10 16 1010.9 1010.8 0.0
28/05:00pm 28.0 30.8 25.0 84 2.1 E 19 30 10 16 1010.6 1010.5 0.0
28/04:30pm 28.6 30.5 25.0 81 2.5 E 24 39 13 21 1010.1 1010.0 0.0
28/04:00pm 29.3 31.8 25.3 79 2.8 E 22 35 12 19 1010.3 1010.2 0.0
28/03:30pm 28.7 30.8 24.7 79 2.8 E 22 35 12 19 1010.4 1010.3 0.0
28/03:00pm 28.6 30.6 25.2 82 2.4 E 24 37 13 20 1010.7 1010.6 0.0
28/02:30pm 28.5 29.1 24.1 77 3.0 E 28 43 15 23 1010.8 1010.7 0.0
28/02:00pm 29.6 30.6 24.7 75 3.4 E 28 43 15 23 1010.9 1010.8 0.0
28/01:30pm 29.7 30.8 24.3 73 3.8 E 26 39 14 21 1011.2 1011.1 0.0
28/01:00pm 29.0 31.4 25.2 80 2.7 E 22 37 12 20 1011.8 1011.7 0.0
28/12:30pm 30.3 34.2 27.5 85 2.0 ESE 22 39 12 21 1012.2 1012.1 0.0
28/12:00pm 28.6 31.5 26.0 86 1.8 ESE 22 39 12 21 1012.7 1012.6 0.0
28/11:30am 29.0 32.7 26.6 87 1.7 ESE 20 33 11 18 1012.8 1012.7 0.0
28/11:00am 29.9 33.4 26.9 84 2.2 E 22 35 12 19 1013.2 1013.1 0.0
28/10:30am 29.1 31.8 25.7 82 2.4 E 22 35 12 19 1013.4 1013.3 0.0
28/10:00am 28.5 31.0 25.3 83 2.2 E 22 35 12 19 1013.2 1013.1 0.0
28/09:30am 28.8 31.3 26.0 85 2.0 E 24 37 13 20 1013.0 1012.9 0.0
28/09:00am 27.9 31.9 26.7 93 0.9 ESE 19 32 10 17 1013.1 1013.0 28.8
28/08:30am 27.5 31.4 26.1 92 1.0 ESE 17 30 9 16 1012.8 1012.7 28.8
28/08:00am 27.1 31.5 26.8 98 0.2 ESE 17 30 9 16 1012.2 1012.1 28.8
28/07:30am 26.7 30.5 26.7 100 0.0 ESE 20 30 11 16 1011.6 1011.5 28.8
28/07:00am 26.3 30.0 26.3 100 0.0 ESE 19 32 10 17 1011.7 1011.6 28.8
28/06:30am 26.1 29.5 26.1 100 0.0 ESE 20 28 11 15 1011.1 1011.0 28.8
28/06:00am 25.9 29.7 25.9 100 0.0 ESE 17 26 9 14 1011.2 1011.1 28.8
28/05:30am 25.9 29.3 25.9 100 0.0 E 19 28 10 15 1011.3 1011.2 28.8
28/05:00am 26.0 29.9 26.0 100 0.0 ESE 17 28 9 15 1011.1 1011.0 28.8
28/04:30am 26.0 30.2 26.0 100 0.0 E 15 22 8 12 1011.3 1011.2 28.8
28/04:00am 25.9 29.7 25.9 100 0.0 E 17 28 9 15 1010.9 1010.8 28.8
28/03:30am 26.0 29.3 26.0 100 0.0 E 20 32 11 17 1010.5 1010.4 28.8
28/03:00am 26.2 29.8 26.2 100 0.0 E 19 30 10 16 1010.5 1010.4 28.8
28/02:30am 26.3 29.8 26.3 100 0.0 E 20 35 11 19 1010.8 1010.7 28.8
28/02:00am 26.0 29.9 26.0 100 0.0 E 17 24 9 13 1010.6 1010.5 28.8
28/01:30am 25.9 29.1 25.9 100 0.0 E 20 30 11 16 1010.8 1010.7 28.8
28/01:00am 25.8 29.0 25.8 100 0.0 E 20 33 11 18 1011.0 1010.9 28.8
28/12:30am 25.6 28.8 25.6 100 0.0 ESE 19 32 10 17 1011.2 1011.1 28.6
28/12:00am 25.5 29.0 25.5 100 0.0 ESE 17 26 9 14 1011.3 1011.2 28.6
 
Date/Time
CST
Temp
°C
App
Temp
°C
Dew
Point
°C
Rel
Hum
%
Delta-T
°C
Wind Press
QNH
hPa
Press
MSL
hPa
Rain since
9am
mm
Dir  Spd
km/h
Gust
km/h
Spd
kts
Gust
kts
27/11:30pm 25.5 29.0 25.5 100 0.0 ESE 17 30 9 16 1011.4 1011.3 28.6
27/11:00pm 25.6 28.8 25.6 100 0.0 E 19 30 10 16 1011.7 1011.6 28.6
27/10:30pm 25.6 29.6 25.6 100 0.0 E 15 20 8 11 1012.1 1012.0 28.4
27/10:00pm 25.4 29.3 25.4 100 0.0 ESE 15 26 8 14 1012.2 1012.1 28.4
27/09:30pm 25.1 28.4 25.1 100 0.0 E 17 28 9 15 1012.5 1012.4 28.4
27/09:00pm 24.8 27.9 24.8 100 0.0 E 17 28 9 15 1012.2 1012.1 28.4
27/08:30pm 24.4 26.3 24.4 100 0.0 E 22 33 12 18 1012.2 1012.1 28.4
27/08:00pm 24.4 26.9 24.4 100 0.0 E 19 26 10 14 1011.9 1011.8 28.4
27/07:30pm 24.4 25.5 24.4 100 0.0 ENE 26 43 14 23 1011.2 1011.1 26.0
27/07:00pm 24.3 24.6 24.3 100 0.0 E 30 50 16 27 1010.7 1010.6 24.2
27/06:52pm 24.4 24.8 24.4 100 0.0 E 30 50 16 27 1010.6 1010.5 24.2
27/06:30pm 25.6 28.3 25.6 100 0.0 E 22 32 12 17 1010.3 1010.2 22.4
27/06:00pm 26.0 28.5 26.0 100 0.0 E 24 37 13 20 1009.9 1009.8 21.4
27/05:30pm 25.6 29.2 25.6 100 0.0 E 17 32 9 17 1009.4 1009.3 19.8
27/05:00pm 25.1 27.8 25.1 100 0.0 E 20 30 11 16 1009.2 1009.1 18.2
27/04:30pm 26.5 30.1 26.5 100 0.0 E 20 32 11 17 1008.8 1008.7 16.0
27/04:00pm 26.7 31.0 26.7 100 0.0 E 17 26 9 14 1008.8 1008.7 16.0
27/03:30pm 26.7 30.7 26.7 100 0.0 ESE 19 28 10 15 1008.5 1008.4 16.0
27/03:00pm 27.3 30.7 27.3 100 0.0 E 24 37 13 20 1008.7 1008.6 15.6
27/02:30pm 26.6 29.9 26.6 100 0.0 E 22 33 12 18 1008.7 1008.6 15.6
27/02:00pm 27.2 31.3 27.2 100 0.0 ESE 20 33 11 18 1009.2 1009.1 15.0
27/01:30pm 27.8 31.6 27.8 100 0.0 E 24 39 13 21 1009.3 1009.2 15.0
27/01:00pm 27.6 31.6 27.6 100 0.0 E 22 33 12 18 1010.1 1010.0 15.0
27/12:30pm 26.5 30.3 26.5 100 0.0 E 19 33 10 18 1010.4 1010.3 15.0
27/12:00pm 27.2 30.9 27.2 100 0.0 ENE 22 35 12 19 1010.8 1010.7 15.0
27/11:30am 26.7 30.7 26.7 100 0.0 ENE 19 28 10 15 1011.1 1011.0 15.0
27/11:00am 26.3 29.8 26.3 100 0.0 ENE 20 32 11 17 1011.2 1011.1 15.0
27/10:30am 25.6 28.3 25.6 100 0.0 ENE 22 35 12 19 1011.5 1011.4 15.0
27/10:00am 24.5 26.5 24.5 100 0.0 E 22 33 12 18 1010.9 1010.8 14.8
27/09:39am 25.8 29.0 25.8 100 0.0 ENE 20 57 11 31 1010.7 1010.6 7.6
27/09:30am 26.3 30.4 26.3 100 0.0 E 17 24 9 13 1010.3 1010.2 0.8
27/09:00am 26.3 29.0 26.3 100 0.0 E 24 39 13 21 1010.7 1010.6 11.6
27/08:30am 25.8 29.2 25.8 100 0.0 E 19 33 10 18 1010.5 1010.4 11.4
27/08:00am 25.8 28.6 25.8 100 0.0 E 22 35 12 19 1009.8 1009.7 10.8
27/07:30am 26.4 28.8 26.4 100 0.0 E 26 43 14 23 1009.6 1009.5 8.0
27/07:00am 26.2 28.5 26.2 100 0.0 E 26 39 14 21 1008.4 1008.3 7.8
27/06:30am 26.5 28.6 26.5 100 0.0 E 28 41 15 22 1007.9 1007.8 7.4
27/06:00am 26.3 28.7 26.3 100 0.0 E 26 39 14 21 1008.0 1007.9 7.4
27/05:30am 25.9 28.4 25.9 100 0.0 E 24 35 13 19 1008.1 1008.0 7.4
27/05:00am 25.5 27.3 25.5 100 0.0 E 26 39 14 21 1008.0 1007.9 7.4
27/04:55am 25.6 27.1 25.6 100 0.0 E 28 46 15 25 1008.1 1008.0 7.2
27/04:30am 26.5 29.7 26.5 100 0.0 E 22 37 12 20 1008.0 1007.9 6.0
27/04:00am 26.8 30.3 26.8 100 0.0 E 22 32 12 17 1007.9 1007.8 6.0
27/03:30am 26.6 30.5 26.6 100 0.0 E 19 32 10 17 1008.0 1007.9 6.0
27/03:00am 26.3 29.4 26.3 100 0.0 E 22 37 12 20 1007.9 1007.8 6.0
27/02:30am 26.0 29.3 26.0 100 0.0 E 20 32 11 17 1008.2 1008.1 6.0
27/02:00am 25.6 28.6 25.6 100 0.0 E 20 37 11 20 1008.1 1008.0 6.0
27/01:30am 25.3 27.8 25.3 100 0.0 E 22 33 12 18 1008.5 1008.4 6.0
27/01:00am 24.7 26.8 24.7 100 0.0 E 22 35 12 19 1009.0 1008.9 6.0
27/12:30am 25.3 27.4 25.3 100 0.0 E 24 35 13 19 1009.1 1009.0 5.8
27/12:00am 25.0 27.3 25.0 100 0.0 ESE 22 35 12 19 1008.6 1008.5 5.8
 
Date/Time
CST
Temp
°C
App
Temp
°C
Dew
Point
°C
Rel
Hum
%
Delta-T
°C
Wind Press
QNH
hPa
Press
MSL
hPa
Rain since
9am
mm
Dir  Spd
km/h
Gust
km/h
Spd
kts
Gust
kts
26/11:34pm 25.2 26.5 25.2 100 0.0 ESE 28 48 15 26 1009.4 1009.3 5.8
26/11:30pm 25.1 26.7 25.1 100 0.0 ESE 26 41 14 22 1009.6 1009.5 5.8
26/11:06pm 25.1 26.3 25.1 100 0.0 ESE 28 50 15 27 1009.7 1009.6 5.8
26/11:00pm 25.2 26.1 25.2 100 0.0 ESE 30 46 16 25 1009.6 1009.5 5.8
26/10:30pm 25.4 26.4 25.4 100 0.0 ESE 30 43 16 23 1009.7 1009.6 5.8
26/10:18pm 25.7 27.3 25.7 100 0.0 ESE 28 48 15 26 1009.7 1009.6 5.8
26/10:00pm 25.9 27.2 25.9 100 0.0 ESE 30 44 16 24 1010.1 1010.0 5.8
26/09:30pm 25.8 28.2 25.8 100 0.0 ESE 24 37 13 20 1010.1 1010.0 5.8
26/09:00pm 25.8 28.2 25.8 100 0.0 ESE 24 39 13 21 1009.7 1009.6 5.8

Other Formats:

Comma delimited format used in spreadsheet applications
http://www.bom.gov.au/fwo/IDD60801/IDD60801.94108.axf

JavaScript Object Notation format (JSON) in row-major order
http://www.bom.gov.au/fwo/IDD60801/IDD60801.94108.json